createdAt,value
2018-05-07T00:00:18.246Z,21.12
2018-05-07T00:02:48.532Z,21.27
2018-05-07T00:05:18.758Z,21.19
2018-05-07T00:07:49.175Z,21.17
2018-05-07T00:10:22.057Z,21.07
2018-05-07T00:12:53.707Z,20.88
2018-05-07T00:15:25.498Z,20.90
2018-05-07T00:17:57.008Z,20.83
2018-05-07T00:20:27.261Z,20.81
2018-05-07T00:23:01.029Z,20.88
2018-05-07T00:25:33.471Z,20.86
2018-05-07T00:28:03.902Z,20.79
2018-05-07T00:30:35.219Z,20.75
2018-05-07T00:33:05.425Z,20.67
2018-05-07T00:35:35.708Z,20.64
2018-05-07T00:38:07.824Z,20.59
2018-05-07T00:40:38.398Z,20.57
2018-05-07T00:43:08.953Z,20.52
2018-05-07T00:45:40.977Z,20.40
2018-05-07T00:48:11.348Z,20.32
2018-05-07T00:50:42.520Z,20.21
2018-05-07T00:53:13.304Z,20.23
2018-05-07T00:55:44.053Z,20.19
2018-05-07T00:58:14.933Z,20.16
2018-05-07T01:00:46.104Z,20.14
2018-05-07T01:03:16.591Z,20.16
2018-05-07T01:05:47.610Z,20.11
2018-05-07T01:08:18.762Z,20.01
2018-05-07T01:10:49.243Z,20.00
2018-05-07T01:13:19.611Z,19.95
2018-05-07T01:15:50.363Z,19.98
2018-05-07T01:18:21.964Z,19.93
2018-05-07T01:20:53.583Z,19.78
2018-05-07T01:23:24.690Z,19.68
2018-05-07T01:26:00.454Z,19.60
2018-05-07T01:28:31.518Z,19.54
2018-05-07T01:31:02.443Z,19.45
2018-05-07T01:33:33.361Z,19.42
2018-05-07T01:36:03.631Z,19.38
2018-05-07T01:38:33.864Z,19.38
2018-05-07T01:41:04.347Z,19.25
2018-05-07T01:43:34.900Z,19.15
2018-05-07T01:46:06.314Z,19.10
2018-05-07T01:48:37.892Z,19.13
2018-05-07T01:51:08.360Z,19.08
2018-05-07T01:53:39.510Z,18.98
2018-05-07T01:56:10.089Z,18.84
2018-05-07T01:58:40.369Z,18.77
2018-05-07T02:01:11.439Z,18.73
2018-05-07T02:03:41.765Z,18.85
2018-05-07T02:06:12.332Z,18.81
2018-05-07T02:08:42.918Z,18.80
2018-05-07T02:11:13.248Z,18.82
2018-05-07T02:13:44.389Z,18.80
2018-05-07T02:16:18.353Z,18.71
2018-05-07T02:18:48.900Z,18.62
2018-05-07T02:21:20.500Z,18.61
2018-05-07T02:23:52.038Z,18.63
2018-05-07T02:26:22.607Z,18.70
2018-05-07T02:28:53.355Z,18.68
2018-05-07T02:31:36.209Z,18.64
2018-05-07T02:34:08.259Z,18.54
2018-05-07T02:36:39.346Z,18.46
2018-05-07T02:39:10.383Z,18.43
2018-05-07T02:41:40.727Z,18.43
2018-05-07T02:44:11.047Z,18.41
2018-05-07T02:46:41.686Z,18.43
2018-05-07T02:49:12.158Z,18.41
2018-05-07T02:51:42.608Z,18.30
2018-05-07T02:54:12.961Z,18.28
2018-05-07T02:56:44.008Z,18.19
2018-05-07T02:59:14.590Z,18.12
2018-05-07T03:01:45.901Z,17.99
2018-05-07T03:04:16.162Z,18.07
2018-05-07T03:06:47.982Z,18.05
2018-05-07T03:09:18.911Z,18.07
2018-05-07T03:11:49.420Z,18.03
2018-05-07T03:14:20.232Z,17.93
2018-05-07T03:16:50.764Z,17.78
2018-05-07T03:19:21.457Z,17.58
2018-05-07T03:21:52.751Z,17.42
2018-05-07T03:24:24.395Z,17.49
2018-05-07T03:26:55.579Z,17.54
2018-05-07T03:29:28.445Z,17.51
2018-05-07T03:31:59.240Z,17.53
2018-05-07T03:34:30.176Z,17.48
2018-05-07T03:37:00.566Z,17.51
2018-05-07T03:39:30.749Z,17.49
2018-05-07T03:42:01.543Z,17.51
2018-05-07T03:44:32.487Z,17.45
2018-05-07T03:47:03.057Z,17.37
2018-05-07T03:49:34.254Z,17.34
2018-05-07T03:52:04.587Z,17.24
2018-05-07T03:54:35.796Z,17.21
2018-05-07T03:57:07.688Z,17.08
2018-05-07T03:59:38.357Z,17.06
2018-05-07T04:02:09.098Z,16.97
2018-05-07T04:04:39.482Z,17.11
2018-05-07T04:07:10.609Z,17.10
2018-05-07T04:09:41.122Z,17.14
2018-05-07T04:12:13.940Z,17.13
2018-05-07T04:14:44.134Z,17.10
2018-05-07T04:17:32.577Z,17.10
2018-05-07T04:22:16.826Z,17.15
2018-05-07T04:24:48.135Z,17.06
2018-05-07T04:27:19.907Z,17.10
2018-05-07T04:29:50.305Z,17.16
2018-05-07T04:32:21.927Z,17.14
2018-05-07T04:34:52.287Z,17.09
2018-05-07T04:37:24.494Z,17.05
2018-05-07T04:39:54.961Z,17.14
2018-05-07T04:42:26.041Z,17.39
2018-05-07T04:44:56.199Z,17.61
2018-05-07T04:47:26.761Z,17.89
2018-05-07T04:49:57.287Z,18.20
2018-05-07T04:52:36.268Z,18.50
2018-05-07T04:55:06.952Z,18.69
2018-05-07T04:57:37.887Z,18.90
2018-05-07T05:00:09.591Z,19.09
2018-05-07T05:02:39.995Z,19.34
2018-05-07T05:05:10.179Z,19.62
2018-05-07T05:07:40.552Z,19.83
2018-05-07T05:10:10.887Z,19.95
2018-05-07T05:12:42.150Z,20.05
2018-05-07T05:15:17.931Z,20.26
2018-05-07T05:17:51.993Z,20.63
2018-05-07T05:20:23.795Z,20.99
2018-05-07T05:22:54.344Z,21.28
2018-05-07T05:25:25.100Z,21.50
2018-05-07T05:27:56.090Z,21.80
2018-05-07T05:33:01.427Z,22.27
2018-05-07T05:35:32.078Z,22.50
2018-05-07T05:38:03.882Z,22.80
2018-05-07T05:40:37.513Z,23.20
2018-05-07T05:43:07.632Z,23.23
2018-05-07T05:45:38.965Z,23.32
2018-05-07T05:48:11.638Z,23.62
2018-05-07T05:50:47.400Z,23.83
2018-05-07T05:53:20.438Z,23.66
2018-05-07T05:55:50.866Z,23.82
2018-05-07T05:58:21.140Z,23.96
2018-05-07T06:01:02.277Z,24.44
2018-05-07T06:03:32.527Z,24.68
2018-05-07T06:06:02.753Z,24.73
2018-05-07T06:08:33.662Z,24.78
2018-05-07T06:11:04.039Z,25.25
2018-05-07T06:13:34.427Z,25.48
2018-05-07T06:16:05.115Z,25.75
2018-05-07T06:18:59.105Z,25.63
2018-05-07T06:21:39.317Z,25.26
2018-05-07T06:24:10.356Z,24.89
2018-05-07T06:26:41.147Z,24.02
2018-05-07T06:29:11.716Z,24.95
2018-05-07T06:31:55.947Z,25.48
2018-05-07T06:34:26.335Z,24.80
2018-05-07T06:36:57.922Z,25.15
2018-05-07T06:39:29.765Z,25.44
2018-05-07T06:42:00.184Z,25.57
2018-05-07T06:44:34.932Z,25.82
2018-05-07T06:47:05.405Z,25.85
2018-05-07T06:49:36.000Z,26.01
2018-05-07T06:52:06.308Z,26.46
2018-05-07T06:54:39.598Z,26.65
2018-05-07T06:57:11.356Z,26.97
2018-05-07T06:59:43.465Z,27.14
2018-05-07T07:02:15.125Z,27.06
2018-05-07T07:04:59.863Z,26.47
2018-05-07T07:07:34.831Z,25.26
2018-05-07T07:10:06.065Z,26.07
2018-05-07T07:12:36.417Z,25.28
2018-05-07T07:15:09.015Z,26.06
2018-05-07T07:17:43.555Z,26.78
2018-05-07T07:20:25.933Z,26.91
2018-05-07T07:22:57.185Z,27.07
2018-05-07T07:25:31.881Z,27.47
2018-05-07T07:28:02.617Z,27.45
2018-05-07T07:30:33.467Z,27.41
2018-05-07T07:33:03.654Z,27.68
2018-05-07T07:38:12.822Z,27.09
2018-05-07T07:40:43.043Z,27.22
2018-05-07T07:43:17.066Z,27.66
2018-05-07T07:45:48.988Z,28.33
2018-05-07T07:48:19.843Z,28.72
2018-05-07T07:50:50.253Z,28.57
2018-05-07T07:53:20.900Z,28.53
2018-05-07T07:55:51.191Z,28.90
2018-05-07T07:58:24.984Z,28.12
2018-05-07T08:00:57.832Z,28.77
2018-05-07T08:03:29.356Z,29.17
2018-05-07T08:05:59.791Z,28.44
2018-05-07T08:08:30.653Z,28.23
2018-05-07T08:11:01.730Z,27.50
2018-05-07T08:13:33.433Z,28.09
2018-05-07T08:16:07.495Z,28.42
2018-05-07T08:18:38.371Z,29.14
2018-05-07T08:21:08.646Z,29.67
2018-05-07T08:23:44.035Z,29.99
2018-05-07T08:26:19.927Z,29.35
2018-05-07T08:28:50.204Z,29.05
2018-05-07T08:31:21.282Z,29.31
2018-05-07T08:33:52.437Z,29.27
2018-05-07T08:36:22.849Z,29.11
2018-05-07T08:38:53.915Z,29.61
2018-05-07T08:41:24.842Z,29.88
2018-05-07T08:43:55.236Z,30.21
2018-05-07T08:46:25.498Z,30.42
2018-05-07T08:48:55.626Z,30.64
2018-05-07T08:51:27.718Z,29.24
2018-05-07T08:53:58.744Z,30.04
2018-05-07T08:56:29.292Z,30.65
2018-05-07T08:59:00.289Z,31.03
2018-05-07T09:01:32.641Z,30.46
2018-05-07T09:04:03.608Z,29.92
2018-05-07T09:06:33.880Z,29.99
2018-05-07T09:09:06.016Z,30.47
2018-05-07T09:11:38.812Z,30.49
2018-05-07T09:14:08.969Z,30.05
2018-05-07T09:16:39.732Z,29.64
2018-05-07T09:19:10.412Z,30.26
2018-05-07T09:21:51.596Z,31.14
2018-05-07T09:24:22.383Z,31.48
2018-05-07T09:26:53.059Z,31.13
2018-05-07T09:29:26.181Z,31.11
2018-05-07T09:31:59.594Z,31.64
2018-05-07T09:34:33.197Z,31.75
2018-05-07T09:37:05.111Z,32.06
2018-05-07T09:39:35.603Z,32.42
2018-05-07T09:42:05.912Z,31.32
2018-05-07T09:44:37.398Z,31.27
2018-05-07T09:47:10.504Z,31.92
2018-05-07T09:49:42.057Z,32.43
2018-05-07T09:52:12.191Z,33.04
2018-05-07T09:54:43.688Z,33.24
2018-05-07T09:57:20.572Z,33.01
2018-05-07T09:59:50.863Z,32.27
2018-05-07T10:02:25.890Z,31.67
2018-05-07T10:05:01.132Z,31.56
2018-05-07T10:07:32.351Z,31.49
2018-05-07T10:10:09.910Z,31.54
2018-05-07T10:12:54.756Z,30.16
2018-05-07T10:15:25.106Z,30.95
2018-05-07T10:17:57.533Z,32.31
2018-05-07T10:20:32.188Z,33.17
2018-05-07T10:23:04.540Z,33.12
2018-05-07T10:25:35.508Z,33.05
2018-05-07T10:28:06.172Z,33.20
2018-05-07T10:30:37.694Z,33.81
2018-05-07T10:33:08.862Z,33.93
2018-05-07T10:35:42.990Z,33.09
2018-05-07T10:38:13.349Z,33.03
2018-05-07T10:40:57.226Z,33.35
2018-05-07T10:43:29.978Z,33.47
2018-05-07T10:46:03.651Z,33.66
2018-05-07T10:48:34.954Z,33.12
2018-05-07T10:51:08.077Z,33.41
2018-05-07T10:53:55.097Z,33.79
2018-05-07T10:56:27.465Z,33.28
2018-05-07T10:58:57.717Z,33.49
2018-05-07T11:01:28.918Z,34.19
2018-05-07T11:04:00.378Z,32.90
2018-05-07T11:06:32.132Z,33.36
2018-05-07T11:09:03.433Z,32.69
2018-05-07T11:11:34.179Z,34.33
2018-05-07T11:14:05.907Z,34.79
2018-05-07T11:16:36.946Z,34.90
2018-05-07T11:19:09.298Z,35.14
2018-05-07T11:21:40.450Z,34.90
2018-05-07T11:24:16.113Z,34.99
2018-05-07T11:26:47.555Z,35.28
2018-05-07T11:29:18.381Z,35.76
2018-05-07T11:31:49.187Z,35.35
2018-05-07T11:34:19.480Z,35.30
2018-05-07T11:36:52.119Z,35.31
2018-05-07T11:39:23.276Z,34.66
2018-05-07T11:41:53.705Z,34.35
2018-05-07T11:44:25.783Z,34.21
2018-05-07T11:46:57.781Z,34.81
2018-05-07T11:49:48.650Z,35.73
2018-05-07T11:52:19.562Z,35.24
2018-05-07T11:54:52.271Z,34.97
2018-05-07T11:57:24.255Z,35.02
2018-05-07T11:59:58.182Z,35.09
2018-05-07T12:02:30.703Z,35.00
2018-05-07T12:05:01.134Z,34.75
2018-05-07T12:07:31.857Z,34.71
2018-05-07T12:10:04.250Z,34.53
2018-05-07T12:12:35.256Z,34.35
2018-05-07T12:15:14.516Z,34.51
2018-05-07T12:17:48.205Z,34.51
2018-05-07T12:20:19.860Z,35.43
2018-05-07T12:22:53.874Z,36.12
2018-05-07T12:25:24.789Z,35.03
2018-05-07T12:28:01.385Z,35.76
2018-05-07T12:30:31.890Z,36.58
2018-05-07T12:33:02.451Z,36.78
2018-05-07T12:35:33.229Z,36.47
2018-05-07T12:38:03.772Z,36.66
2018-05-07T12:40:45.409Z,35.89
2018-05-07T12:43:17.032Z,36.63
2018-05-07T12:45:48.399Z,36.21
2018-05-07T12:48:23.425Z,35.90
2018-05-07T12:50:55.494Z,36.13
2018-05-07T12:53:31.121Z,36.16
2018-05-07T12:56:03.161Z,35.94
2018-05-07T12:58:33.909Z,36.39
2018-05-07T13:01:07.690Z,36.15
2018-05-07T13:03:38.321Z,36.38
2018-05-07T13:06:11.411Z,34.88
2018-05-07T13:08:44.987Z,35.09
2018-05-07T13:11:15.849Z,35.53
2018-05-07T13:13:47.465Z,35.63
2018-05-07T13:16:21.376Z,35.98
2018-05-07T13:18:52.596Z,35.88
2018-05-07T13:21:24.573Z,35.39
2018-05-07T13:23:55.134Z,35.51
2018-05-07T13:26:25.509Z,35.95
2018-05-07T13:28:57.192Z,36.05
2018-05-07T13:31:28.640Z,36.40
2018-05-07T13:34:02.163Z,36.36
2018-05-07T13:36:36.376Z,35.64
2018-05-07T13:39:08.448Z,35.71
2018-05-07T13:41:39.970Z,36.07
2018-05-07T13:44:11.968Z,35.99
2018-05-07T13:46:42.321Z,35.85
2018-05-07T13:49:13.285Z,35.83
2018-05-07T13:51:45.216Z,35.23
2018-05-07T13:54:15.676Z,35.18
2018-05-07T13:59:36.015Z,34.59
2018-05-07T14:02:09.236Z,34.45
2018-05-07T14:04:41.679Z,34.28
2018-05-07T14:07:27.252Z,34.44
2018-05-07T14:10:01.006Z,34.83
2018-05-07T14:12:32.754Z,35.07
2018-05-07T14:15:08.785Z,35.09
2018-05-07T14:17:39.647Z,35.10
2018-05-07T14:20:10.885Z,35.61
2018-05-07T14:22:43.834Z,35.30
2018-05-07T14:25:14.248Z,35.19
2018-05-07T14:27:46.851Z,34.97
2018-05-07T14:30:17.527Z,33.98
2018-05-07T14:32:48.280Z,34.57
2018-05-07T14:35:19.203Z,34.66
2018-05-07T14:37:50.424Z,34.68
2018-05-07T14:40:22.511Z,35.20
2018-05-07T14:42:56.152Z,34.54
2018-05-07T14:45:32.195Z,34.34
2018-05-07T14:48:03.639Z,34.22
2018-05-07T14:50:34.679Z,34.22
2018-05-07T14:53:06.179Z,34.14
2018-05-07T14:55:37.040Z,34.18
2018-05-07T14:58:09.134Z,34.03
2018-05-07T15:00:49.466Z,33.83
2018-05-07T15:03:20.081Z,33.73
2018-05-07T15:05:53.041Z,33.38
2018-05-07T15:08:23.597Z,33.28
2018-05-07T15:10:58.816Z,33.13
2018-05-07T15:13:34.765Z,32.81
2018-05-07T15:16:16.158Z,32.59
2018-05-07T15:18:46.951Z,32.30
2018-05-07T15:21:18.888Z,32.22
2018-05-07T15:23:50.092Z,32.07
2018-05-07T15:26:21.270Z,31.78
2018-05-07T15:28:54.987Z,31.43
2018-05-07T15:31:26.262Z,30.91
2018-05-07T15:34:00.199Z,31.07
2018-05-07T15:36:37.437Z,30.92
2018-05-07T15:39:10.094Z,30.75
2018-05-07T15:41:41.183Z,30.66
2018-05-07T15:44:13.353Z,30.40
2018-05-07T15:46:45.170Z,30.39
2018-05-07T15:49:21.304Z,30.46
2018-05-07T15:51:57.652Z,30.36
2018-05-07T15:54:31.859Z,30.25
2018-05-07T15:57:02.456Z,30.16
2018-05-07T15:59:39.225Z,30.10
2018-05-07T16:02:13.832Z,29.81
2018-05-07T16:07:38.628Z,29.80
2018-05-07T16:10:10.173Z,29.89
2018-05-07T16:12:41.405Z,29.88
2018-05-07T16:15:16.107Z,29.91
2018-05-07T16:17:51.213Z,29.96
2018-05-07T16:20:23.095Z,29.85
2018-05-07T16:22:55.389Z,29.79
2018-05-07T16:25:25.837Z,29.81
2018-05-07T16:27:57.769Z,29.88
2018-05-07T16:30:29.607Z,29.88
2018-05-07T16:33:02.896Z,29.88
2018-05-07T16:35:34.816Z,29.76
2018-05-07T16:38:06.269Z,29.73
2018-05-07T16:40:37.097Z,29.77
2018-05-07T16:43:08.943Z,29.67
2018-05-07T16:45:40.378Z,29.62
2018-05-07T16:48:11.151Z,29.48
2018-05-07T16:50:42.890Z,29.54
2018-05-07T16:53:17.229Z,29.55
2018-05-07T16:55:48.530Z,29.57
2018-05-07T16:58:19.110Z,29.55
2018-05-07T17:00:52.080Z,29.53
2018-05-07T17:03:22.985Z,29.53
2018-05-07T17:05:57.783Z,29.47
2018-05-07T17:08:29.444Z,29.48
2018-05-07T17:11:00.404Z,29.45
2018-05-07T17:13:31.835Z,29.37
2018-05-07T17:16:04.994Z,29.30
2018-05-07T17:18:37.487Z,29.32
2018-05-07T17:21:08.990Z,29.28
2018-05-07T17:23:41.211Z,29.36
2018-05-07T17:26:14.597Z,29.17
2018-05-07T17:28:46.150Z,29.05
2018-05-07T17:31:19.318Z,29.01
2018-05-07T17:33:50.734Z,28.92
2018-05-07T17:36:24.164Z,28.93
2018-05-07T17:38:57.185Z,28.83
2018-05-07T17:41:28.056Z,28.88
2018-05-07T17:44:04.011Z,28.69
2018-05-07T17:46:53.468Z,28.58
2018-05-07T17:49:30.968Z,28.58
2018-05-07T17:52:17.973Z,28.60
2018-05-07T17:54:57.183Z,28.61
2018-05-07T17:57:32.307Z,28.59
2018-05-07T18:00:14.943Z,28.56
2018-05-07T18:02:49.953Z,28.56
2018-05-07T18:08:44.791Z,28.37
2018-05-07T18:11:22.736Z,28.25
2018-05-07T18:14:00.048Z,28.08
2018-05-07T18:16:45.658Z,28.00
2018-05-07T18:19:18.871Z,28.01
2018-05-07T18:21:54.578Z,28.04
2018-05-07T18:24:32.568Z,27.97
2018-05-07T18:27:18.549Z,27.91
2018-05-07T18:32:49.882Z,27.73
2018-05-07T18:35:24.643Z,27.66
2018-05-07T18:38:02.193Z,27.54
2018-05-07T18:40:47.078Z,27.43
2018-05-07T18:43:29.369Z,27.39
2018-05-07T18:46:16.908Z,27.34
2018-05-07T18:48:57.994Z,27.28
2018-05-07T18:51:51.037Z,27.42
2018-05-07T18:54:27.631Z,27.34
2018-05-07T18:57:21.297Z,27.35
2018-05-07T19:00:07.693Z,27.17
2018-05-07T19:02:45.921Z,27.07
2018-05-07T19:08:15.574Z,26.89
2018-05-07T19:10:48.365Z,26.83
2018-05-07T19:13:32.770Z,26.69
2018-05-07T19:16:17.537Z,26.67
2018-05-07T19:18:56.177Z,26.59
2018-05-07T19:21:31.228Z,26.60
2018-05-07T19:26:49.216Z,26.62
2018-05-07T19:29:24.728Z,26.64
2018-05-07T19:31:58.681Z,26.57
2018-05-07T19:34:31.872Z,26.41
2018-05-07T19:37:07.518Z,26.33
2018-05-07T19:39:43.803Z,26.25
2018-05-07T19:42:16.270Z,26.16
2018-05-07T19:44:50.469Z,26.13
2018-05-07T19:47:24.711Z,26.04
2018-05-07T19:49:58.893Z,26.11
2018-05-07T19:52:36.062Z,25.90
2018-05-07T19:55:10.863Z,25.83
2018-05-07T19:57:58.770Z,25.76
2018-05-07T20:00:36.719Z,25.70
2018-05-07T20:03:25.273Z,25.67
2018-05-07T20:05:59.935Z,25.55
2018-05-07T20:08:33.113Z,25.49
2018-05-07T20:11:10.799Z,25.50
2018-05-07T20:13:50.287Z,25.44
2018-05-07T20:16:26.796Z,25.37
2018-05-07T20:19:02.449Z,25.19
2018-05-07T20:21:36.963Z,25.13
2018-05-07T20:24:10.447Z,24.94
2018-05-07T20:26:43.070Z,24.86
2018-05-07T20:29:26.222Z,24.88
2018-05-07T20:32:17.357Z,24.65
2018-05-07T20:34:50.940Z,24.62
2018-05-07T20:37:23.329Z,24.70
2018-05-07T20:39:55.472Z,24.63
2018-05-07T20:42:36.943Z,24.59
2018-05-07T20:45:15.783Z,24.52
2018-05-07T20:48:02.705Z,24.52
2018-05-07T20:50:44.652Z,24.46
2018-05-07T20:53:18.337Z,24.45
2018-05-07T20:55:53.920Z,24.41
2018-05-07T20:58:27.404Z,24.35
2018-05-07T21:03:53.749Z,24.40
2018-05-07T21:06:25.772Z,24.38
2018-05-07T21:09:02.983Z,24.46
2018-05-07T21:11:48.055Z,24.40
2018-05-07T21:14:21.725Z,24.31
2018-05-07T21:16:54.119Z,24.34
2018-05-07T21:19:25.843Z,24.28
2018-05-07T21:21:56.594Z,24.28
2018-05-07T21:24:28.926Z,24.29
2018-05-07T21:26:59.707Z,24.28
2018-05-07T21:29:30.819Z,24.04
2018-05-07T21:34:56.442Z,23.79
2018-05-07T21:37:28.148Z,23.72
2018-05-07T21:40:02.740Z,23.61
2018-05-07T21:42:33.492Z,23.50
2018-05-07T21:45:15.812Z,23.32
2018-05-07T21:47:48.794Z,23.33
2018-05-07T21:50:20.581Z,23.31
2018-05-07T21:52:55.934Z,23.20
2018-05-07T21:55:27.313Z,23.12
2018-05-07T21:58:02.364Z,23.15
2018-05-07T22:00:33.272Z,23.21
2018-05-07T22:03:03.581Z,23.23
2018-05-07T22:05:33.907Z,23.19
2018-05-07T22:08:04.605Z,22.99
2018-05-07T22:10:35.691Z,23.01
2018-05-07T22:13:06.286Z,23.11
2018-05-07T22:15:37.062Z,23.14
2018-05-07T22:18:07.907Z,23.21
2018-05-07T22:20:38.975Z,23.27
2018-05-07T22:23:11.473Z,22.91
2018-05-07T22:25:42.355Z,23.23
2018-05-07T22:28:14.374Z,23.27
2018-05-07T22:30:44.765Z,23.26
2018-05-07T22:33:15.430Z,23.01
2018-05-07T22:35:49.520Z,23.07
2018-05-07T22:38:20.043Z,23.05
2018-05-07T22:40:50.742Z,23.10
2018-05-07T22:43:20.949Z,23.11
2018-05-07T22:45:52.553Z,23.07
2018-05-07T22:48:25.093Z,23.15
2018-05-07T22:50:55.488Z,23.15
2018-05-07T22:53:28.125Z,23.21
2018-05-07T22:55:59.120Z,23.25
2018-05-07T22:58:30.061Z,23.28
2018-05-07T23:01:01.100Z,23.28
2018-05-07T23:03:32.857Z,23.29
2018-05-07T23:06:03.574Z,23.30
2018-05-07T23:08:34.142Z,23.21
2018-05-07T23:11:04.699Z,23.10
2018-05-07T23:13:36.570Z,23.07
2018-05-07T23:16:09.211Z,23.10
2018-05-07T23:18:39.540Z,23.09
2018-05-07T23:21:10.083Z,22.91
2018-05-07T23:23:40.477Z,22.91
2018-05-07T23:26:11.122Z,22.82
2018-05-07T23:28:41.297Z,22.83
2018-05-07T23:31:11.872Z,22.72
2018-05-07T23:33:43.177Z,22.65
2018-05-07T23:36:14.247Z,22.66
2018-05-07T23:38:46.884Z,22.57
2018-05-07T23:41:18.215Z,22.61
2018-05-07T23:43:48.548Z,22.59
2018-05-07T23:46:19.004Z,22.57
2018-05-07T23:48:49.696Z,22.55
2018-05-07T23:51:19.909Z,22.61
2018-05-07T23:53:50.252Z,22.59
2018-05-07T23:56:21.775Z,22.50
2018-05-07T23:58:52.566Z,22.47
